Terminal Aerodrome Forecast
Issued by NWS

Home | Current Version | Previous Version | Text Only | Print | Product List | Glossary On
Versions: 1 2 3 4 5 6 7 8 9 10 11 12 13 14 15 16 17 18 19 20 21 22 23 24 25 26 27 28
745
FTUS42 KCAE 051137
TAFDNL
TAF
KDNL 051137Z 0512/0612 30010KT P6SM SKC
     FM051400 31013G20KT P6SM SCT060
     FM051700 30015G23KT P6SM VCSH BKN060
     FM060000 31008KT P6SM SCT060 BKN150
     FM060800 29007KT P6SM SCT060 BKN150=

USA.gov is the U.S. government's official web portal to all federal, state and local government web resources and services.